CheckWX is a tool to help pilots better visualize weather data.  It is not intended as a substitute for an official pre-flight weather briefing.

12:31:09 UTC

GMME TAF
Rabat-Salé Airport
Rabat, Morocco
TAF GMME 221100Z 2212/2318 07010KT 8000 NSC

Mar-22@
12:00 UTC

Mar-22 @ 12:00 UTC

Mar-23@
18:00 UTC

Mar-23 @ 18:00 UTC

TAF GMME 221100Z 2212/2318 07010KT 8000 NSC
Wind
  • 070° at 10 KTS
Cloud Levels
  • No significant clouds